Main page
METAR-TAF:

METAR-TAF

Airports :

Budapest, Hungary

Budapest Ferenc Liszt International Airport

latitude: 47-26N, longitude: 019-16E, elevation: 151 m

Current weather observation

The report was made 26 minutes ago, at 14:00 UTC
Wind 5 kt from the East/Southeast, varying between East/Northeast and South/Southeast
Temperature 23°C
Humidity 33%
Pressure 1023 hPa
Visibility 10 km or more
no clouds below 1500 m and no cumulonimbus

METAR: LHBP 281400Z 12005KT 070V160 CAVOK 23/06 Q1023 NOSIG

Time: 16:26 (14:26 UTC)

Forecast

The report was made 3 hours and 11 minutes ago, at 11:15 UTC
Forecast valid from 28 at 12 UTC to 29 at 12 UTC
Wind 7 kt from the East/Northeast
Visibility 10 km or more
no clouds below 1500 m and no cumulonimbus
Becoming
from 28 at 16 UTC to 28 at 18 UTC
Wind 3 kt from variable directions
Becoming
from 29 at 07 UTC to 29 at 09 UTC
Wind 7 kt from the South/Southwest

TAF: LHBP 281115Z 2812/2912 07007KT CAVOK BECMG 2816/2818 VRB03KT BECMG 2907/2909 21007KT

Weather observations and forecasts of more than 4000 airports (METAR and TAF reports).

The available stations are represented by yellow and red dots on the map.

Hover mouse over dot to see the name of the station.

Then click to see weather observations and forecasts.

To change the map : click on the green buttons with a black cross to zoom in, on the green button with a dash to zoom out, or on the green arrows for adjacent maps.


METAR-TAF: